METAR Data
IDs: Format: Raw Decoded Include TAF

Data at: 1848 UTC 25 Mar 2019

KMDD 251835Z AUTO 09010G16KT 10SM 22/07 A3026 RMK AO2 T02200069
KMDD 251815Z AUTO 10010KT 10SM 22/07 A3026 RMK AO2 T02170069
KMDD 251755Z AUTO 09011G15KT 10SM 21/07 A3027 RMK AO2 T02100070 10210 20092
KMDD 251735Z AUTO 08011KT 10SM 21/07 A3027 RMK AO2 T02050071
KMDD 251715Z AUTO 07010KT 10SM 20/07 A3027 RMK AO2 T01980071
KMDD 251655Z AUTO 07011KT 10SM 19/07 A3027 RMK AO2 T01900070
KMDD 251635Z AUTO 07013KT 10SM 19/07 A3028 RMK AO2 T01860072
KMDD 251615Z AUTO 08011KT 10SM 18/07 A3028 RMK AO2 T01790072
KMDD 251555Z AUTO 08012KT 10SM 17/08 A3027 RMK AO2 T01710075
KMDD 251535Z AUTO 08014KT 10SM 16/08 A3027 RMK AO2 T01600075
KMDD 251515Z AUTO 08012KT 10SM 15/08 A3027 RMK AO2 T01540080
KMDD 251455Z AUTO 08011KT 10SM 15/09 A3026 RMK AO2 T01450085
KMDD 251435Z AUTO 06011KT 10SM 14/09 A3025 RMK AO2 T01350089
KMDD 251415Z AUTO 05008KT 10SM 12/09 A3024 RMK AO2 T01220093
KMDD 251355Z AUTO 04009KT 10SM 11/09 A3023 RMK AO2 T01120087
KMDD 251335Z AUTO 03007KT 10SM 10/08 A3022 RMK AO2 T01030083
KMDD 251315Z AUTO 03007KT 10SM 10/08 A3021 RMK AO2 T00960077
KMDD 251255Z AUTO 05007KT 10SM 09/07 A3020 RMK AO2 T00930072
KMDD 251235Z AUTO 04009KT 10SM 10/08 A3019 RMK AO2 T00950075
KMDD 251215Z AUTO 04009KT 10SM 10/07 A3017 RMK AO2 T00950072
KMDD 251155Z AUTO 02005KT 10SM 10/07 A3016 RMK AO2 T00950068 10149 20088
KMDD 251135Z AUTO 03006KT 10SM 10/07 A3015 RMK AO2 T00970068
KMDD 251115Z AUTO 03008KT 10SM 10/07 A3015 RMK AO2 T01000070
KMDD 251055Z AUTO 02004KT 10SM 09/06 A3014 RMK AO2 T00880060
KMDD 251035Z AUTO 36004KT 10SM 09/06 A3013 RMK AO2 T00900058
KMDD 251015Z AUTO 35004KT 10SM 09/06 A3013 RMK AO2 T00940060
KMDD 250955Z AUTO 01003KT 10SM 10/06 A3012 RMK AO2 T01000063
KMDD 250935Z AUTO 03004KT 10SM 10/06 A3012 RMK AO2 T01000060
KMDD 250915Z AUTO 04003KT 10SM 10/06 A3012 RMK AO2 T01020058
KMDD 250855Z AUTO 00000KT 10SM 11/06 A3011 RMK AO2 T01070060
KMDD 250835Z AUTO 00000KT 10SM 11/06 A3011 RMK AO2 T01110059
KMDD 250815Z AUTO 02005KT 10SM 11/06 A3012 RMK AO2 T01110058
KMDD 250755Z AUTO 00000KT 10SM 12/05 A3012 RMK AO2 T01150054
KMDD 250735Z AUTO 01003KT 10SM 12/05 A3011 RMK AO2 T01210052
KMDD 250715Z AUTO 05003KT 10SM 13/04 A3011 RMK AO2 T01250044
KMDD 250655Z AUTO 06004KT 10SM 13/05 A3010 RMK AO2 T01310046
KMDD 250635Z AUTO 06004KT 10SM 13/03 A3010 RMK AO2 T01320029
KMDD 250615Z AUTO 06004KT 10SM 14/03 A3010 RMK AO2 T01420029
KMDD 250555Z AUTO 07005KT 10SM 15/01 A3010 RMK AO2 T01500005 10275 20150 402870141
KMDD 250535Z AUTO 36006KT 10SM 16/00 A3010 RMK AO2 T01631001
KMDD 250515Z AUTO 33005KT 10SM 16/M01 A3009 RMK AO2 T01621008
KMDD 250455Z AUTO 05007KT 10SM 17/M01 A3010 RMK AO2 T01721007
KMDD 250435Z AUTO 23004KT 10SM 18/M02 A3009 RMK AO2 T01791016
KMDD 250415Z AUTO 24004KT 10SM 18/M01 A3009 RMK AO2 T01751014
KMDD 250355Z AUTO 00000KT 10SM 18/M01 A3008 RMK AO2 T01751009
KMDD 250335Z AUTO 00000KT 10SM 18/M01 A3007 RMK AO2 T01751011
KMDD 250315Z AUTO 00000KT 10SM 19/M01 A3007 RMK AO2 T01881009
KMDD 250255Z AUTO 21003KT 10SM 20/M01 A3006 RMK AO2 T01961011
KMDD 250235Z AUTO 20005KT 10SM 20/00 A3005 RMK AO2 T01961004
KMDD 250215Z AUTO 30004KT 10SM 20/M01 A3004 RMK AO2 T02021012
KMDD 250155Z AUTO 28005KT 10SM 21/M01 A3004 RMK AO2 T02061012
KMDD 250135Z AUTO 28005KT 10SM 22/M01 A3003 RMK AO2 LTG DSNT N T02171015
KMDD 250115Z AUTO 28005KT 10SM 23/M02 A3003 RMK AO2 T02331020
KMDD 250055Z AUTO 27006KT 10SM 25/M02 A3002 RMK AO2 T02511020
KMDD 250035Z AUTO 26009KT 10SM 27/M02 A3002 RMK AO2 T02651019
KMDD 250015Z AUTO 27013KT 10SM 27/M02 A3001 RMK AO2 T02711021
KMDD 242355Z AUTO 24012G18KT 10SM 28/M02 A3001 RMK AO2 T02761017 10287 20251
KMDD 242335Z AUTO 25011KT 10SM 28/00 A3001 RMK AO2 T02801005
KMDD 242315Z AUTO 27011G15KT 10SM 28/00 A3000 RMK AO2 T02831001
KMDD 242255Z AUTO 25012G16KT 10SM 28/00 A3001 RMK AO2 T02830001
KMDD 242235Z AUTO 26011G16KT 10SM 29/00 A3001 RMK AO2 T02851002
KMDD 242215Z AUTO 25011G17KT 10SM 29/00 A3001 RMK AO2 T02870004
KMDD 242155Z AUTO 26012G17KT 10SM 28/00 A3001 RMK AO2 T02830004
KMDD 242135Z AUTO 25013G18KT 10SM 29/00 A3001 RMK AO2 T02850003
KMDD 242115Z AUTO 25011G16KT 10SM 28/00 A3002 RMK AO2 T02840002
KMDD 242055Z AUTO 23008KT 10SM 28/01 A3002 RMK AO2 T02840010
KMDD 242035Z AUTO 26006KT 10SM 29/02 A3003 RMK AO2 T02850020
KMDD 242015Z AUTO 27012G18KT 10SM 28/01 A3003 RMK AO2 T02780010
KMDD 241955Z AUTO 29011KT 10SM 28/02 A3004 RMK AO2 T02770017
KMDD 241935Z AUTO 29015G19KT 10SM 28/01 A3005 RMK AO2 T02750014
KMDD 241915Z AUTO 30005G14KT 10SM 28/03 A3007 RMK AO2 T02750029
KMDD 241855Z AUTO 26009KT 10SM 27/03 A3008 RMK AO2 T02700029
KMDD 241835Z AUTO 25007KT 220V300 10SM 27/05 A3008 RMK AO2 T02650049
KMDD 241815Z AUTO 28009G14KT 10SM 26/06 A3009 RMK AO2 T02580059
KMDD 241755Z AUTO 25008KT 10SM 25/06 A3009 RMK AO2 T02510061 10251 20141
KMDD 241735Z AUTO 24007KT 10SM 24/06 A3010 RMK AO2 T02410063
KMDD 241715Z AUTO 24010KT 10SM 24/07 A3010 RMK AO2 T02360068
KMDD 241655Z AUTO 22007KT 10SM 23/08 A3011 RMK AO2 T02300077
KMDD 241635Z AUTO 23006KT 10SM 22/11 A3010 RMK AO2 T02200107
KMDD 241615Z AUTO 23009KT 10SM 21/11 A3010 RMK AO2 T02110112
KMDD 241555Z AUTO 22009KT 10SM 20/14 A3010 RMK AO2 T01960137
KMDD 241535Z AUTO 21009KT 10SM 19/15 A3010 RMK AO2 T01850146
KMDD 241515Z AUTO 21008KT 10SM 17/15 A3009 RMK AO2 T01730147
KMDD 241455Z AUTO 20010KT 7SM 16/15 A3009 RMK AO2 T01640150
KMDD 241435Z AUTO 21008KT 5SM BR 16/15 A3008 RMK AO2 T01550153
KMDD 241415Z AUTO 22010KT 4SM BR 15/15 A3007 RMK AO2 T01450145
KMDD 241355Z AUTO 21006KT 2 1/2SM BR 14/14 A3007 RMK AO2 T01430143
KMDD 241335Z AUTO 22007KT 1SM BR 14/14 A3006 RMK AO2 T01410141
KMDD 241315Z AUTO 21006KT 1/4SM FG 14/14 A3005 RMK AO2 T01420142
KMDD 241255Z AUTO 22008KT 1/4SM FG 14/14 A3004 RMK AO2 T01420141
KMDD 241235Z AUTO 22008G14KT 1 1/2SM BR 14/14 A3004 RMK AO2 T01430139
KMDD 241215Z AUTO 22009KT 5SM BR 14/14 A3003 RMK AO2 T01420135
KMDD 241155Z AUTO 22010G14KT 7SM 14/14 A3003 RMK AO2 T01430135 10172 20142
KMDD 241135Z AUTO 21008KT 10SM 14/13 A3003 RMK AO2 T01430133
KMDD 241115Z AUTO 22007KT 10SM 15/13 A3003 RMK AO2 T01450133
KMDD 241055Z AUTO 22007KT 10SM 14/13 A3003 RMK AO2 T01430130
KMDD 241035Z AUTO 22008KT 10SM 14/13 A3003 RMK AO2 T01430128
KMDD 241015Z AUTO 21008KT 10SM 14/13 A3003 RMK AO2 T01440125
KMDD 240955Z AUTO 21008KT 10SM 15/13 A3003 RMK AO2 T01470127
KMDD 240935Z AUTO 21010KT 10SM 15/13 A3003 RMK AO2 T01500127
KMDD 240915Z AUTO 22011KT 10SM 15/13 A3003 RMK AO2 T01520125
KMDD 240855Z AUTO 21010KT 10SM 16/13 A3003 RMK AO2 T01550125
KMDD 240835Z AUTO 21009KT 10SM 16/12 A3003 RMK AO2 T01560120
KMDD 240815Z AUTO 21008KT 10SM 16/12 A3003 RMK AO2 T01600118
KMDD 240755Z AUTO 21011KT 10SM 16/11 A3003 RMK AO2 T01620111
KMDD 240735Z AUTO 21011KT 10SM 17/10 A3003 RMK AO2 T01660102
KMDD 240715Z AUTO 21010KT 10SM 17/09 A3003 RMK AO2 T01700093
KMDD 240655Z AUTO 21009KT 10SM 17/07 A3003 RMK AO2 T01700073